Tull, Arkansas
Current Conditions -  °F | °C
As of 1:53 PM on Sunday 25 Jan 2015 (Local Time) from KLIT Reporting Station
Overcast Overcast  
Wind Chill: 58°   Ceiling: 6500
Heat Index: 58°   Visibility: 10mi
Dew Point: 32°   Wind: 23mph
Humidity: 37%   Direction: 280°W
Pressure: 29.76"   Gusts: 33mph
Location:  34.5666°N, 92.583°W
Report Text: KLIT 251953Z 28020G29KT 10SM OVC065 14/00 A2976 RMK AO2 PK WND 30031/1909 SLP079 BINOVC T01440000
Loading
Personal Weather Stations






























Interactive Weather Map New forecast layout! Learn more

10-Day Weather Forecast

Advertisements
Track Severe Weather on mobile